sensor_id;sensor_type;location;lat;lon;timestamp;P1;durP1;ratioP1;P2;durP2;ratioP2
757;SDS011;363;48.764;9.172;2024-01-07T00:27:41;14.70;;;11.98;;
757;SDS011;363;48.764;9.172;2024-01-07T00:30:06;14.83;;;11.83;;
757;SDS011;363;48.764;9.172;2024-01-07T00:32:32;13.48;;;10.77;;
757;SDS011;363;48.764;9.172;2024-01-07T00:34:58;13.90;;;10.97;;
757;SDS011;363;48.764;9.172;2024-01-07T00:37:31;15.07;;;10.45;;
757;SDS011;363;48.764;9.172;2024-01-07T00:39:59;13.43;;;10.32;;
757;SDS011;363;48.764;9.172;2024-01-07T00:42:25;14.43;;;10.85;;
757;SDS011;363;48.764;9.172;2024-01-07T00:50:02;12.30;;;9.73;;
757;SDS011;363;48.764;9.172;2024-01-07T00:52:28;13.50;;;10.97;;
757;SDS011;363;48.764;9.172;2024-01-07T00:54:54;14.17;;;10.40;;
757;SDS011;363;48.764;9.172;2024-01-07T06:41:30;10.52;;;9.43;;
757;SDS011;363;48.764;9.172;2024-01-07T06:43:55;10.83;;;9.37;;
757;SDS011;363;48.764;9.172;2024-01-07T06:46:22;11.82;;;9.68;;
757;SDS011;363;48.764;9.172;2024-01-07T06:48:47;11.37;;;8.83;;
757;SDS011;363;48.764;9.172;2024-01-07T06:51:14;12.13;;;9.17;;
757;SDS011;363;48.764;9.172;2024-01-07T06:58:40;12.93;;;10.63;;
757;SDS011;363;48.764;9.172;2024-01-07T07:03:32;11.70;;;8.93;;
757;SDS011;363;48.764;9.172;2024-01-07T07:08:33;11.27;;;8.85;;
757;SDS011;363;48.764;9.172;2024-01-07T07:11:00;11.73;;;10.30;;
757;SDS011;363;48.764;9.172;2024-01-07T07:13:26;10.82;;;9.52;;
757;SDS011;363;48.764;9.172;2024-01-07T07:15:51;10.33;;;9.20;;
757;SDS011;363;48.764;9.172;2024-01-07T07:18:17;10.83;;;9.73;;
757;SDS011;363;48.764;9.172;2024-01-07T07:20:43;12.05;;;10.80;;
757;SDS011;363;48.764;9.172;2024-01-07T07:23:09;18.03;;;10.53;;
757;SDS011;363;48.764;9.172;2024-01-07T07:25:34;10.90;;;9.80;;
757;SDS011;363;48.764;9.172;2024-01-07T07:28:00;12.23;;;8.97;;
757;SDS011;363;48.764;9.172;2024-01-07T07:30:26;10.10;;;9.10;;
757;SDS011;363;48.764;9.172;2024-01-07T07:32:52;11.20;;;9.43;;
757;SDS011;363;48.764;9.172;2024-01-07T07:35:18;10.85;;;9.55;;
757;SDS011;363;48.764;9.172;2024-01-07T07:37:44;11.32;;;9.18;;
757;SDS011;363;48.764;9.172;2024-01-07T07:40:09;13.00;;;9.07;;
757;SDS011;363;48.764;9.172;2024-01-07T07:47:54;10.50;;;8.93;;
757;SDS011;363;48.764;9.172;2024-01-07T07:50:20;10.87;;;8.80;;
757;SDS011;363;48.764;9.172;2024-01-07T07:52:46;10.18;;;8.30;;
757;SDS011;363;48.764;9.172;2024-01-07T07:55:12;10.77;;;8.77;;
757;SDS011;363;48.764;9.172;2024-01-07T07:57:38;8.67;;;7.77;;
757;SDS011;363;48.764;9.172;2024-01-07T08:00:07;9.00;;;7.95;;
757;SDS011;363;48.764;9.172;2024-01-07T08:02:36;14.18;;;8.55;;
757;SDS011;363;48.764;9.172;2024-01-07T08:05:01;8.80;;;7.00;;
757;SDS011;363;48.764;9.172;2024-01-07T08:07:28;10.40;;;7.80;;
757;SDS011;363;48.764;9.172;2024-01-07T08:09:54;8.83;;;7.90;;
757;SDS011;363;48.764;9.172;2024-01-07T08:12:22;8.85;;;7.95;;
757;SDS011;363;48.764;9.172;2024-01-07T08:14:47;8.30;;;6.60;;
757;SDS011;363;48.764;9.172;2024-01-07T08:17:13;10.03;;;7.97;;
757;SDS011;363;48.764;9.172;2024-01-07T08:19:38;7.93;;;7.00;;
757;SDS011;363;48.764;9.172;2024-01-07T08:22:04;6.77;;;6.10;;
757;SDS011;363;48.764;9.172;2024-01-07T08:24:34;8.07;;;7.18;;
757;SDS011;363;48.764;9.172;2024-01-07T08:26:59;7.70;;;6.60;;
757;SDS011;363;48.764;9.172;2024-01-07T08:29:26;7.57;;;6.68;;
757;SDS011;363;48.764;9.172;2024-01-07T08:31:51;6.67;;;5.97;;
757;SDS011;363;48.764;9.172;2024-01-07T08:34:17;6.30;;;5.70;;
757;SDS011;363;48.764;9.172;2024-01-07T08:36:43;7.70;;;6.90;;
757;SDS011;363;48.764;9.172;2024-01-07T08:39:08;8.67;;;6.77;;
757;SDS011;363;48.764;9.172;2024-01-07T08:41:35;7.35;;;6.15;;
757;SDS011;363;48.764;9.172;2024-01-07T08:44:02;8.03;;;6.40;;
757;SDS011;363;48.764;9.172;2024-01-07T08:46:27;7.53;;;6.15;;
757;SDS011;363;48.764;9.172;2024-01-07T08:48:53;10.63;;;8.30;;
757;SDS011;363;48.764;9.172;2024-01-07T08:51:18;8.73;;;6.83;;
757;SDS011;363;48.764;9.172;2024-01-07T08:53:44;8.70;;;6.50;;
757;SDS011;363;48.764;9.172;2024-01-07T08:56:09;7.77;;;6.43;;
757;SDS011;363;48.764;9.172;2024-01-07T08:58:37;7.60;;;6.15;;
757;SDS011;363;48.764;9.172;2024-01-07T09:01:02;9.00;;;6.20;;
757;SDS011;363;48.764;9.172;2024-01-07T09:03:28;9.00;;;6.73;;
757;SDS011;363;48.764;9.172;2024-01-07T09:05:54;7.90;;;6.53;;
757;SDS011;363;48.764;9.172;2024-01-07T09:08:21;7.85;;;7.07;;
757;SDS011;363;48.764;9.172;2024-01-07T09:10:47;8.68;;;7.65;;
757;SDS011;363;48.764;9.172;2024-01-07T09:13:13;7.47;;;6.67;;
757;SDS011;363;48.764;9.172;2024-01-07T09:15:38;7.13;;;6.43;;
757;SDS011;363;48.764;9.172;2024-01-07T09:18:04;8.40;;;5.97;;
757;SDS011;363;48.764;9.172;2024-01-07T09:20:30;6.77;;;6.03;;
757;SDS011;363;48.764;9.172;2024-01-07T09:22:56;5.65;;;5.05;;
757;SDS011;363;48.764;9.172;2024-01-07T09:25:22;5.13;;;4.63;;
757;SDS011;363;48.764;9.172;2024-01-07T09:27:47;4.23;;;3.83;;
757;SDS011;363;48.764;9.172;2024-01-07T09:30:13;4.10;;;3.70;;
757;SDS011;363;48.764;9.172;2024-01-07T09:32:40;4.80;;;4.30;;
757;SDS011;363;48.764;9.172;2024-01-07T09:35:06;4.95;;;4.40;;
757;SDS011;363;48.764;9.172;2024-01-07T09:37:32;5.20;;;4.33;;
757;SDS011;363;48.764;9.172;2024-01-07T09:39:58;5.97;;;4.37;;
757;SDS011;363;48.764;9.172;2024-01-07T09:42:24;5.37;;;4.33;;
757;SDS011;363;48.764;9.172;2024-01-07T09:44:50;5.83;;;4.73;;
757;SDS011;363;48.764;9.172;2024-01-07T09:47:17;5.20;;;4.40;;
757;SDS011;363;48.764;9.172;2024-01-07T09:49:43;5.20;;;4.70;;
757;SDS011;363;48.764;9.172;2024-01-07T09:52:10;5.05;;;4.15;;
757;SDS011;363;48.764;9.172;2024-01-07T09:54:36;5.28;;;4.15;;
757;SDS011;363;48.764;9.172;2024-01-07T09:57:03;4.88;;;4.35;;
757;SDS011;363;48.764;9.172;2024-01-07T09:59:33;5.25;;;4.60;;
757;SDS011;363;48.764;9.172;2024-01-07T10:02:01;5.20;;;4.15;;
757;SDS011;363;48.764;9.172;2024-01-07T10:04:31;4.30;;;3.90;;
757;SDS011;363;48.764;9.172;2024-01-07T10:06:56;5.50;;;4.68;;
757;SDS011;363;48.764;9.172;2024-01-07T10:09:22;5.67;;;4.80;;
757;SDS011;363;48.764;9.172;2024-01-07T10:11:50;5.82;;;4.80;;
757;SDS011;363;48.764;9.172;2024-01-07T10:14:16;5.17;;;4.27;;
757;SDS011;363;48.764;9.172;2024-01-07T10:16:41;5.13;;;4.63;;
757;SDS011;363;48.764;9.172;2024-01-07T10:19:07;6.10;;;5.50;;
757;SDS011;363;48.764;9.172;2024-01-07T10:21:33;8.83;;;5.53;;
757;SDS011;363;48.764;9.172;2024-01-07T10:24:11;5.95;;;5.35;;
757;SDS011;363;48.764;9.172;2024-01-07T10:26:38;6.38;;;5.20;;
757;SDS011;363;48.764;9.172;2024-01-07T10:29:04;6.75;;;5.40;;
757;SDS011;363;48.764;9.172;2024-01-07T10:31:34;4.88;;;4.30;;
757;SDS011;363;48.764;9.172;2024-01-07T10:34:00;5.45;;;4.85;;
757;SDS011;363;48.764;9.172;2024-01-07T10:36:25;6.60;;;4.73;;
757;SDS011;363;48.764;9.172;2024-01-07T10:38:52;6.20;;;5.20;;
757;SDS011;363;48.764;9.172;2024-01-07T10:41:19;5.65;;;4.85;;
757;SDS011;363;48.764;9.172;2024-01-07T10:43:46;4.93;;;4.43;;
757;SDS011;363;48.764;9.172;2024-01-07T10:46:13;6.65;;;5.90;;
757;SDS011;363;48.764;9.172;2024-01-07T10:48:43;5.28;;;4.35;;
757;SDS011;363;48.764;9.172;2024-01-07T10:51:18;6.70;;;5.20;;
757;SDS011;363;48.764;9.172;2024-01-07T10:53:46;7.22;;;5.40;;
757;SDS011;363;48.764;9.172;2024-01-07T10:56:22;7.25;;;5.85;;
757;SDS011;363;48.764;9.172;2024-01-07T10:58:49;5.95;;;5.32;;
757;SDS011;363;48.764;9.172;2024-01-07T11:01:19;7.13;;;5.53;;
757;SDS011;363;48.764;9.172;2024-01-07T11:03:51;7.20;;;5.80;;
757;SDS011;363;48.764;9.172;2024-01-07T11:06:27;6.15;;;5.55;;
757;SDS011;363;48.764;9.172;2024-01-07T11:09:06;8.73;;;6.40;;
757;SDS011;363;48.764;9.172;2024-01-07T11:12:00;6.30;;;5.20;;
757;SDS011;363;48.764;9.172;2024-01-07T11:14:42;6.20;;;5.05;;
757;SDS011;363;48.764;9.172;2024-01-07T11:18:03;7.25;;;5.70;;
757;SDS011;363;48.764;9.172;2024-01-07T11:20:05;4.90;;;4.40;;
757;SDS011;363;48.764;9.172;2024-01-07T11:22:31;6.60;;;5.50;;
757;SDS011;363;48.764;9.172;2024-01-07T11:24:58;7.53;;;5.82;;
757;SDS011;363;48.764;9.172;2024-01-07T11:27:25;6.80;;;5.53;;
757;SDS011;363;48.764;9.172;2024-01-07T11:29:53;6.65;;;5.90;;
757;SDS011;363;48.764;9.172;2024-01-07T11:32:23;5.88;;;5.28;;
757;SDS011;363;48.764;9.172;2024-01-07T11:34:53;6.20;;;5.47;;
757;SDS011;363;48.764;9.172;2024-01-07T11:37:21;6.13;;;5.53;;
757;SDS011;363;48.764;9.172;2024-01-07T11:39:48;5.97;;;4.75;;
757;SDS011;363;48.764;9.172;2024-01-07T11:42:16;7.13;;;5.20;;
757;SDS011;363;48.764;9.172;2024-01-07T11:44:45;5.93;;;5.33;;
757;SDS011;363;48.764;9.172;2024-01-07T11:47:17;5.78;;;5.15;;
757;SDS011;363;48.764;9.172;2024-01-07T11:49:45;8.23;;;5.13;;
757;SDS011;363;48.764;9.172;2024-01-07T11:52:11;6.75;;;5.65;;
757;SDS011;363;48.764;9.172;2024-01-07T11:54:37;6.77;;;5.07;;
757;SDS011;363;48.764;9.172;2024-01-07T11:57:05;6.38;;;5.35;;
757;SDS011;363;48.764;9.172;2024-01-07T11:59:34;6.32;;;5.28;;
757;SDS011;363;48.764;9.172;2024-01-07T12:02:01;5.63;;;5.00;;
757;SDS011;363;48.764;9.172;2024-01-07T12:04:29;5.63;;;5.00;;
757;SDS011;363;48.764;9.172;2024-01-07T12:06:55;6.90;;;5.68;;
757;SDS011;363;48.764;9.172;2024-01-07T12:09:21;7.27;;;5.80;;
757;SDS011;363;48.764;9.172;2024-01-07T12:11:47;6.93;;;5.90;;
757;SDS011;363;48.764;9.172;2024-01-07T12:14:13;6.30;;;5.43;;
757;SDS011;363;48.764;9.172;2024-01-07T12:16:39;6.88;;;5.70;;
757;SDS011;363;48.764;9.172;2024-01-07T12:19:04;7.43;;;6.20;;
757;SDS011;363;48.764;9.172;2024-01-07T12:21:30;8.00;;;6.50;;
757;SDS011;363;48.764;9.172;2024-01-07T12:23:56;6.90;;;6.20;;
757;SDS011;363;48.764;9.172;2024-01-07T12:26:26;6.78;;;5.95;;
757;SDS011;363;48.764;9.172;2024-01-07T12:28:57;6.60;;;5.75;;
757;SDS011;363;48.764;9.172;2024-01-07T12:31:27;7.38;;;6.55;;
757;SDS011;363;48.764;9.172;2024-01-07T12:33:53;7.95;;;7.13;;
757;SDS011;363;48.764;9.172;2024-01-07T12:36:23;8.20;;;7.40;;
757;SDS011;363;48.764;9.172;2024-01-07T12:38:49;7.03;;;6.30;;
757;SDS011;363;48.764;9.172;2024-01-07T12:41:17;7.00;;;6.30;;
757;SDS011;363;48.764;9.172;2024-01-07T12:43:43;7.97;;;6.53;;
757;SDS011;363;48.764;9.172;2024-01-07T12:46:08;8.57;;;7.10;;
757;SDS011;363;48.764;9.172;2024-01-07T12:48:34;8.03;;;7.20;;
757;SDS011;363;48.764;9.172;2024-01-07T12:50:59;9.17;;;7.60;;
757;SDS011;363;48.764;9.172;2024-01-07T12:53:25;8.90;;;7.32;;
757;SDS011;363;48.764;9.172;2024-01-07T12:55:52;8.82;;;7.20;;
757;SDS011;363;48.764;9.172;2024-01-07T12:58:20;10.43;;;6.60;;
757;SDS011;363;48.764;9.172;2024-01-07T13:00:46;8.35;;;7.43;;
757;SDS011;363;48.764;9.172;2024-01-07T13:03:12;7.53;;;6.82;;
757;SDS011;363;48.764;9.172;2024-01-07T13:05:44;8.48;;;7.57;;
757;SDS011;363;48.764;9.172;2024-01-07T13:08:11;7.72;;;6.60;;
757;SDS011;363;48.764;9.172;2024-01-07T13:10:37;8.02;;;7.22;;
757;SDS011;363;48.764;9.172;2024-01-07T13:13:03;8.70;;;7.80;;
757;SDS011;363;48.764;9.172;2024-01-07T13:15:29;9.23;;;7.23;;
757;SDS011;363;48.764;9.172;2024-01-07T13:17:54;7.47;;;6.67;;
757;SDS011;363;48.764;9.172;2024-01-07T13:20:20;7.97;;;7.07;;
757;SDS011;363;48.764;9.172;2024-01-07T13:22:46;9.03;;;7.30;;
757;SDS011;363;48.764;9.172;2024-01-07T13:25:12;8.90;;;7.43;;
757;SDS011;363;48.764;9.172;2024-01-07T13:27:38;10.20;;;7.70;;
757;SDS011;363;48.764;9.172;2024-01-07T13:30:16;8.25;;;7.45;;
757;SDS011;363;48.764;9.172;2024-01-07T13:32:43;10.40;;;7.77;;
757;SDS011;363;48.764;9.172;2024-01-07T13:35:09;9.55;;;7.95;;
757;SDS011;363;48.764;9.172;2024-01-07T13:37:36;9.90;;;8.43;;
757;SDS011;363;48.764;9.172;2024-01-07T13:40:02;9.27;;;7.60;;
757;SDS011;363;48.764;9.172;2024-01-07T13:42:37;9.05;;;7.70;;
757;SDS011;363;48.764;9.172;2024-01-07T13:45:45;8.43;;;6.93;;
757;SDS011;363;48.764;9.172;2024-01-07T13:48:08;10.20;;;8.30;;
757;SDS011;363;48.764;9.172;2024-01-07T13:50:34;10.70;;;9.43;;
757;SDS011;363;48.764;9.172;2024-01-07T13:53:15;12.05;;;9.40;;
757;SDS011;363;48.764;9.172;2024-01-07T13:56:02;9.60;;;7.70;;
757;SDS011;363;48.764;9.172;2024-01-07T13:58:43;10.18;;;8.73;;
757;SDS011;363;48.764;9.172;2024-01-07T14:04:33;12.48;;;7.38;;
757;SDS011;363;48.764;9.172;2024-01-07T14:06:59;14.00;;;8.37;;
757;SDS011;363;48.764;9.172;2024-01-07T14:09:25;10.03;;;7.60;;
757;SDS011;363;48.764;9.172;2024-01-07T14:15:21;9.88;;;8.70;;
757;SDS011;363;48.764;9.172;2024-01-07T14:20:39;9.32;;;7.93;;
757;SDS011;363;48.764;9.172;2024-01-07T14:23:17;10.25;;;7.85;;
757;SDS011;363;48.764;9.172;2024-01-07T14:28:44;10.30;;;8.05;;
757;SDS011;363;48.764;9.172;2024-01-07T14:31:10;10.43;;;9.23;;
757;SDS011;363;48.764;9.172;2024-01-07T14:41:47;12.48;;;9.55;;
757;SDS011;363;48.764;9.172;2024-01-07T14:46:58;10.30;;;8.60;;
757;SDS011;363;48.764;9.172;2024-01-07T14:49:24;11.10;;;9.90;;
757;SDS011;363;48.764;9.172;2024-01-07T14:51:50;11.18;;;9.60;;
757;SDS011;363;48.764;9.172;2024-01-07T14:54:15;12.60;;;9.80;;
757;SDS011;363;48.764;9.172;2024-01-07T14:56:42;12.57;;;10.38;;
757;SDS011;363;48.764;9.172;2024-01-07T14:59:08;11.97;;;10.07;;
757;SDS011;363;48.764;9.172;2024-01-07T15:01:36;14.27;;;10.50;;
757;SDS011;363;48.764;9.172;2024-01-07T15:04:04;11.82;;;10.23;;
757;SDS011;363;48.764;9.172;2024-01-07T15:06:29;10.73;;;8.97;;
757;SDS011;363;48.764;9.172;2024-01-07T15:08:55;13.02;;;10.10;;
757;SDS011;363;48.764;9.172;2024-01-07T15:11:21;12.20;;;9.20;;
757;SDS011;363;48.764;9.172;2024-01-07T15:13:47;11.25;;;9.20;;
757;SDS011;363;48.764;9.172;2024-01-07T15:16:16;11.70;;;9.67;;
757;SDS011;363;48.764;9.172;2024-01-07T15:18:41;11.93;;;9.15;;
757;SDS011;363;48.764;9.172;2024-01-07T15:21:07;10.82;;;8.50;;
757;SDS011;363;48.764;9.172;2024-01-07T15:23:36;14.05;;;9.35;;
757;SDS011;363;48.764;9.172;2024-01-07T15:26:01;13.43;;;10.00;;
757;SDS011;363;48.764;9.172;2024-01-07T15:28:30;9.80;;;8.70;;
757;SDS011;363;48.764;9.172;2024-01-07T15:34:18;12.18;;;9.25;;
757;SDS011;363;48.764;9.172;2024-01-07T15:36:43;12.13;;;9.10;;
757;SDS011;363;48.764;9.172;2024-01-07T15:39:09;10.40;;;8.57;;
757;SDS011;363;48.764;9.172;2024-01-07T15:41:43;10.60;;;8.85;;
757;SDS011;363;48.764;9.172;2024-01-07T15:44:09;14.17;;;9.83;;
757;SDS011;363;48.764;9.172;2024-01-07T15:46:34;13.90;;;9.30;;
757;SDS011;363;48.764;9.172;2024-01-07T15:49:00;11.17;;;9.20;;
757;SDS011;363;48.764;9.172;2024-01-07T15:51:25;12.60;;;9.80;;
757;SDS011;363;48.764;9.172;2024-01-07T15:53:51;13.70;;;9.97;;
757;SDS011;363;48.764;9.172;2024-01-07T15:56:18;12.60;;;10.45;;
757;SDS011;363;48.764;9.172;2024-01-07T15:58:45;14.15;;;9.90;;
757;SDS011;363;48.764;9.172;2024-01-07T16:01:10;12.68;;;9.40;;
757;SDS011;363;48.764;9.172;2024-01-07T16:03:37;11.98;;;9.25;;
757;SDS011;363;48.764;9.172;2024-01-07T16:06:03;10.05;;;8.80;;
757;SDS011;363;48.764;9.172;2024-01-07T16:08:31;12.70;;;9.73;;
757;SDS011;363;48.764;9.172;2024-01-07T16:10:57;12.30;;;9.70;;
757;SDS011;363;48.764;9.172;2024-01-07T16:13:26;11.43;;;9.85;;
757;SDS011;363;48.764;9.172;2024-01-07T16:15:51;13.63;;;9.77;;
757;SDS011;363;48.764;9.172;2024-01-07T16:18:23;12.93;;;9.90;;
757;SDS011;363;48.764;9.172;2024-01-07T16:21:00;16.17;;;12.13;;
757;SDS011;363;48.764;9.172;2024-01-07T16:23:29;14.77;;;10.48;;
757;SDS011;363;48.764;9.172;2024-01-07T16:25:55;13.63;;;10.20;;
757;SDS011;363;48.764;9.172;2024-01-07T16:28:21;12.48;;;9.80;;
757;SDS011;363;48.764;9.172;2024-01-07T16:41:38;12.35;;;8.60;;
757;SDS011;363;48.764;9.172;2024-01-07T16:46:52;10.40;;;9.00;;
757;SDS011;363;48.764;9.172;2024-01-07T16:49:20;11.00;;;7.60;;
757;SDS011;363;48.764;9.172;2024-01-07T16:51:45;11.18;;;9.23;;
757;SDS011;363;48.764;9.172;2024-01-07T16:54:11;9.47;;;8.40;;
757;SDS011;363;48.764;9.172;2024-01-07T16:56:37;11.98;;;9.75;;
757;SDS011;363;48.764;9.172;2024-01-07T16:59:03;12.57;;;9.80;;
757;SDS011;363;48.764;9.172;2024-01-07T17:01:28;11.70;;;8.50;;
757;SDS011;363;48.764;9.172;2024-01-07T17:03:54;11.90;;;8.67;;
757;SDS011;363;48.764;9.172;2024-01-07T17:06:25;13.18;;;9.10;;
757;SDS011;363;48.764;9.172;2024-01-07T17:08:51;12.95;;;9.30;;
757;SDS011;363;48.764;9.172;2024-01-07T17:11:17;17.55;;;14.02;;
757;SDS011;363;48.764;9.172;2024-01-07T17:20:50;10.32;;;7.97;;
757;SDS011;363;48.764;9.172;2024-01-07T17:23:38;12.13;;;9.35;;
757;SDS011;363;48.764;9.172;2024-01-07T17:26:07;10.07;;;8.00;;
757;SDS011;363;48.764;9.172;2024-01-07T17:28:36;10.30;;;7.57;;
757;SDS011;363;48.764;9.172;2024-01-07T17:31:03;12.48;;;8.77;;
757;SDS011;363;48.764;9.172;2024-01-07T17:33:29;9.70;;;8.60;;
757;SDS011;363;48.764;9.172;2024-01-07T17:39:26;8.38;;;7.32;;
757;SDS011;363;48.764;9.172;2024-01-07T17:51:57;10.77;;;7.80;;
757;SDS011;363;48.764;9.172;2024-01-07T17:58:28;14.13;;;10.65;;
757;SDS011;363;48.764;9.172;2024-01-07T18:00:54;10.93;;;8.25;;
757;SDS011;363;48.764;9.172;2024-01-07T18:03:20;13.63;;;8.02;;
757;SDS011;363;48.764;9.172;2024-01-07T18:05:47;13.95;;;8.02;;
757;SDS011;363;48.764;9.172;2024-01-07T18:08:14;10.65;;;8.57;;
757;SDS011;363;48.764;9.172;2024-01-07T18:10:41;12.07;;;8.35;;
757;SDS011;363;48.764;9.172;2024-01-07T18:13:08;10.68;;;7.65;;
757;SDS011;363;48.764;9.172;2024-01-07T18:15:39;10.18;;;7.68;;
757;SDS011;363;48.764;9.172;2024-01-07T18:18:05;8.88;;;7.30;;
757;SDS011;363;48.764;9.172;2024-01-07T18:20:33;10.95;;;8.00;;
757;SDS011;363;48.764;9.172;2024-01-07T18:22:59;11.25;;;7.60;;
757;SDS011;363;48.764;9.172;2024-01-07T18:25:25;11.25;;;7.68;;
757;SDS011;363;48.764;9.172;2024-01-07T18:27:51;11.82;;;8.25;;
757;SDS011;363;48.764;9.172;2024-01-07T18:30:17;8.23;;;7.37;;
757;SDS011;363;48.764;9.172;2024-01-07T18:32:43;8.57;;;7.60;;
757;SDS011;363;48.764;9.172;2024-01-07T18:35:08;12.13;;;7.77;;
757;SDS011;363;48.764;9.172;2024-01-07T18:37:37;9.77;;;7.77;;
757;SDS011;363;48.764;9.172;2024-01-07T18:40:03;11.48;;;8.50;;
757;SDS011;363;48.764;9.172;2024-01-07T18:42:28;11.63;;;8.57;;
757;SDS011;363;48.764;9.172;2024-01-07T18:44:55;10.40;;;7.57;;
757;SDS011;363;48.764;9.172;2024-01-07T18:47:21;11.20;;;8.27;;
757;SDS011;363;48.764;9.172;2024-01-07T18:49:48;10.35;;;7.70;;
757;SDS011;363;48.764;9.172;2024-01-07T18:52:14;10.57;;;7.80;;
757;SDS011;363;48.764;9.172;2024-01-07T18:54:40;9.65;;;6.80;;
757;SDS011;363;48.764;9.172;2024-01-07T18:57:06;9.18;;;7.90;;
757;SDS011;363;48.764;9.172;2024-01-07T18:59:33;13.23;;;7.68;;
757;SDS011;363;48.764;9.172;2024-01-07T19:01:59;9.60;;;8.00;;
757;SDS011;363;48.764;9.172;2024-01-07T19:04:25;10.07;;;8.17;;
757;SDS011;363;48.764;9.172;2024-01-07T19:06:51;10.80;;;7.35;;
757;SDS011;363;48.764;9.172;2024-01-07T19:09:16;10.20;;;7.60;;
757;SDS011;363;48.764;9.172;2024-01-07T19:11:44;9.80;;;6.90;;
757;SDS011;363;48.764;9.172;2024-01-07T19:14:11;13.20;;;7.72;;
757;SDS011;363;48.764;9.172;2024-01-07T19:16:39;9.25;;;7.20;;
757;SDS011;363;48.764;9.172;2024-01-07T19:19:05;9.13;;;7.65;;
757;SDS011;363;48.764;9.172;2024-01-07T19:21:32;11.27;;;7.97;;
757;SDS011;363;48.764;9.172;2024-01-07T19:23:59;9.50;;;7.90;;
757;SDS011;363;48.764;9.172;2024-01-07T19:26:25;11.68;;;8.13;;
757;SDS011;363;48.764;9.172;2024-01-07T19:28:53;10.38;;;7.47;;
757;SDS011;363;48.764;9.172;2024-01-07T19:31:22;9.55;;;7.43;;
757;SDS011;363;48.764;9.172;2024-01-07T19:33:49;7.90;;;6.05;;
757;SDS011;363;48.764;9.172;2024-01-07T19:36:15;7.00;;;6.20;;
757;SDS011;363;48.764;9.172;2024-01-07T19:38:42;7.20;;;6.37;;
757;SDS011;363;48.764;9.172;2024-01-07T19:41:07;7.28;;;6.53;;
757;SDS011;363;48.764;9.172;2024-01-07T19:43:33;8.13;;;6.53;;
757;SDS011;363;48.764;9.172;2024-01-07T19:45:59;7.22;;;6.53;;
757;SDS011;363;48.764;9.172;2024-01-07T19:48:25;6.77;;;5.40;;
757;SDS011;363;48.764;9.172;2024-01-07T19:50:51;9.32;;;7.07;;
757;SDS011;363;48.764;9.172;2024-01-07T19:53:17;8.87;;;6.57;;
757;SDS011;363;48.764;9.172;2024-01-07T19:55:43;8.00;;;6.47;;
757;SDS011;363;48.764;9.172;2024-01-07T19:58:16;9.07;;;7.10;;
757;SDS011;363;48.764;9.172;2024-01-07T20:00:44;7.53;;;6.30;;
757;SDS011;363;48.764;9.172;2024-01-07T20:03:11;8.25;;;6.95;;
757;SDS011;363;48.764;9.172;2024-01-07T20:05:36;8.07;;;6.47;;
757;SDS011;363;48.764;9.172;2024-01-07T20:08:03;7.60;;;6.87;;
757;SDS011;363;48.764;9.172;2024-01-07T20:10:29;10.13;;;6.93;;
757;SDS011;363;48.764;9.172;2024-01-07T20:12:55;8.90;;;6.40;;
757;SDS011;363;48.764;9.172;2024-01-07T20:15:23;8.48;;;6.93;;
757;SDS011;363;48.764;9.172;2024-01-07T20:17:50;8.20;;;6.53;;
757;SDS011;363;48.764;9.172;2024-01-07T20:20:15;7.93;;;7.07;;
757;SDS011;363;48.764;9.172;2024-01-07T20:22:41;10.23;;;7.10;;
757;SDS011;363;48.764;9.172;2024-01-07T20:25:07;6.88;;;6.00;;
757;SDS011;363;48.764;9.172;2024-01-07T20:27:34;9.40;;;7.05;;
757;SDS011;363;48.764;9.172;2024-01-07T20:30:00;6.73;;;6.03;;
757;SDS011;363;48.764;9.172;2024-01-07T20:32:25;7.37;;;6.57;;
757;SDS011;363;48.764;9.172;2024-01-07T20:34:51;9.55;;;6.82;;
757;SDS011;363;48.764;9.172;2024-01-07T20:37:19;7.60;;;6.10;;
757;SDS011;363;48.764;9.172;2024-01-07T20:39:44;7.50;;;6.53;;
757;SDS011;363;48.764;9.172;2024-01-07T20:42:10;7.03;;;6.32;;
757;SDS011;363;48.764;9.172;2024-01-07T20:44:36;8.43;;;6.87;;
757;SDS011;363;48.764;9.172;2024-01-07T20:47:02;7.60;;;6.15;;
757;SDS011;363;48.764;9.172;2024-01-07T20:49:28;7.20;;;6.50;;
757;SDS011;363;48.764;9.172;2024-01-07T20:51:54;8.70;;;6.00;;
757;SDS011;363;48.764;9.172;2024-01-07T20:54:19;8.00;;;6.18;;
757;SDS011;363;48.764;9.172;2024-01-07T20:56:46;7.65;;;6.85;;
757;SDS011;363;48.764;9.172;2024-01-07T20:59:11;9.03;;;7.43;;
757;SDS011;363;48.764;9.172;2024-01-07T21:01:40;7.57;;;6.78;;
757;SDS011;363;48.764;9.172;2024-01-07T21:04:06;7.35;;;6.65;;
757;SDS011;363;48.764;9.172;2024-01-07T21:06:31;8.57;;;6.67;;
757;SDS011;363;48.764;9.172;2024-01-07T21:08:58;10.32;;;7.00;;
757;SDS011;363;48.764;9.172;2024-01-07T21:11:24;6.70;;;5.78;;
757;SDS011;363;48.764;9.172;2024-01-07T21:13:50;6.28;;;5.68;;
757;SDS011;363;48.764;9.172;2024-01-07T21:16:16;8.10;;;6.80;;
757;SDS011;363;48.764;9.172;2024-01-07T21:18:42;9.30;;;6.80;;
757;SDS011;363;48.764;9.172;2024-01-07T21:21:08;8.63;;;6.20;;
757;SDS011;363;48.764;9.172;2024-01-07T21:23:34;7.55;;;6.15;;
757;SDS011;363;48.764;9.172;2024-01-07T21:25:59;8.03;;;6.23;;
757;SDS011;363;48.764;9.172;2024-01-07T21:28:25;7.22;;;5.90;;
757;SDS011;363;48.764;9.172;2024-01-07T21:30:51;8.90;;;6.23;;
757;SDS011;363;48.764;9.172;2024-01-07T21:33:17;7.00;;;5.95;;
757;SDS011;363;48.764;9.172;2024-01-07T21:35:43;8.05;;;5.80;;
757;SDS011;363;48.764;9.172;2024-01-07T21:38:09;8.18;;;6.35;;
757;SDS011;363;48.764;9.172;2024-01-07T21:40:35;6.78;;;6.10;;
757;SDS011;363;48.764;9.172;2024-01-07T21:43:01;6.60;;;5.85;;
757;SDS011;363;48.764;9.172;2024-01-07T21:45:27;6.03;;;5.43;;
757;SDS011;363;48.764;9.172;2024-01-07T21:47:53;6.43;;;5.80;;
757;SDS011;363;48.764;9.172;2024-01-07T21:50:19;6.82;;;6.13;;
757;SDS011;363;48.764;9.172;2024-01-07T21:52:54;7.40;;;5.87;;
757;SDS011;363;48.764;9.172;2024-01-07T21:55:20;6.65;;;5.53;;
757;SDS011;363;48.764;9.172;2024-01-07T21:57:46;6.63;;;5.93;;
757;SDS011;363;48.764;9.172;2024-01-07T22:00:12;7.30;;;6.13;;
757;SDS011;363;48.764;9.172;2024-01-07T22:02:38;8.60;;;6.00;;
757;SDS011;363;48.764;9.172;2024-01-07T22:05:04;8.85;;;7.40;;
757;SDS011;363;48.764;9.172;2024-01-07T22:07:32;6.32;;;5.43;;
757;SDS011;363;48.764;9.172;2024-01-07T22:09:58;7.50;;;6.00;;
757;SDS011;363;48.764;9.172;2024-01-07T22:12:24;6.90;;;6.03;;
757;SDS011;363;48.764;9.172;2024-01-07T22:14:50;9.73;;;6.57;;
757;SDS011;363;48.764;9.172;2024-01-07T22:17:16;8.30;;;6.82;;
757;SDS011;363;48.764;9.172;2024-01-07T22:19:42;8.20;;;6.70;;
757;SDS011;363;48.764;9.172;2024-01-07T22:22:08;7.10;;;5.80;;
757;SDS011;363;48.764;9.172;2024-01-07T22:24:34;7.18;;;6.47;;
757;SDS011;363;48.764;9.172;2024-01-07T22:26:59;8.97;;;7.47;;
757;SDS011;363;48.764;9.172;2024-01-07T22:29:25;6.85;;;6.03;;
757;SDS011;363;48.764;9.172;2024-01-07T22:31:51;7.45;;;6.28;;
757;SDS011;363;48.764;9.172;2024-01-07T22:34:17;7.05;;;5.72;;
757;SDS011;363;48.764;9.172;2024-01-07T22:36:44;7.10;;;6.30;;
757;SDS011;363;48.764;9.172;2024-01-07T22:39:10;9.05;;;6.30;;
757;SDS011;363;48.764;9.172;2024-01-07T22:41:39;6.93;;;6.10;;
757;SDS011;363;48.764;9.172;2024-01-07T22:44:07;7.47;;;5.88;;
757;SDS011;363;48.764;9.172;2024-01-07T22:46:41;7.70;;;5.55;;
757;SDS011;363;48.764;9.172;2024-01-07T22:49:10;6.93;;;6.07;;
757;SDS011;363;48.764;9.172;2024-01-07T22:51:39;6.67;;;5.97;;
757;SDS011;363;48.764;9.172;2024-01-07T22:54:07;6.30;;;5.60;;
757;SDS011;363;48.764;9.172;2024-01-07T22:56:33;7.03;;;5.68;;
757;SDS011;363;48.764;9.172;2024-01-07T22:59:03;6.10;;;5.55;;
757;SDS011;363;48.764;9.172;2024-01-07T23:01:29;5.93;;;5.33;;
757;SDS011;363;48.764;9.172;2024-01-07T23:03:54;6.17;;;5.57;;
757;SDS011;363;48.764;9.172;2024-01-07T23:06:22;7.30;;;5.85;;
757;SDS011;363;48.764;9.172;2024-01-07T23:08:47;6.77;;;5.80;;
757;SDS011;363;48.764;9.172;2024-01-07T23:11:13;6.07;;;5.47;;
757;SDS011;363;48.764;9.172;2024-01-07T23:13:40;6.80;;;5.50;;
757;SDS011;363;48.764;9.172;2024-01-07T23:16:05;6.20;;;4.87;;